Time;durP1;ratioP1;P1;durP2;ratioP2;P2;SDS_P1;SDS_P2;PMS_P1;PMS_P2;Temp;Humidity;BMP_temperature;BMP_pressure;BME280_temperature;BME280_humidity;BME280_pressure;Samples;Min_cycle;Max_cycle;Signal;HPM_P1;HPM_P2
2022/12/02 00:01:48;;;;;;;30.88;10.45;;;3.20;99.90;;;;;;5070388;28;20040;-79
2022/12/02 00:04:33;;;;;;;28.15;10.50;;;3.50;99.90;;;;;;5056459;28;20127;-79
2022/12/02 00:06:59;;;;;;;30.10;11.18;;;3.10;99.90;;;;;;5072730;28;20120;-79
2022/12/02 00:09:32;;;;;;;27.77;10.88;;;3.10;99.90;;;;;;5056744;28;20126;-79
2022/12/02 00:11:59;;;;;;;34.03;10.20;;;3.10;99.90;;;;;;5070253;28;20042;-79
2022/12/02 00:14:33;;;;;;;32.45;10.85;;;3.50;99.90;;;;;;5073453;28;20105;-79
2022/12/02 00:16:58;;;;;;;32.58;11.02;;;3.00;99.90;;;;;;5071931;28;20046;-79
2022/12/02 00:19:24;;;;;;;25.05;9.68;;;3.40;99.90;;;;;;5074263;28;20131;-79
2022/12/02 00:21:51;;;;;;;29.00;10.13;;;3.00;99.90;;;;;;5057333;28;20412;-79
2022/12/02 00:24:17;;;;;;;25.65;11.18;;;3.00;99.90;;;;;;5073373;28;20496;-79
2022/12/02 00:26:43;;;;;;;25.35;11.82;;;3.60;99.90;;;;;;5075371;28;20036;-79
2022/12/02 00:29:09;;;;;;;26.33;9.93;;;3.00;99.90;;;;;;5078029;28;20051;-79
2022/12/02 00:31:35;;;;;;;30.23;12.02;;;2.90;99.90;;;;;;5078031;28;20036;-79
2022/12/02 00:34:02;;;;;;;31.80;11.52;;;2.90;99.90;;;;;;5077849;28;20036;-84
2022/12/02 00:36:28;;;;;;;31.77;9.73;;;2.10;99.90;;;;;;5062692;28;20426;-84
2022/12/02 00:38:55;;;;;;;27.85;9.32;;;2.90;99.90;;;;;;5078653;28;20044;-84
2022/12/02 00:41:21;;;;;;;31.55;11.65;;;2.90;99.90;;;;;;5061977;28;20044;-84
2022/12/02 00:46:31;;;;;;;28.52;10.75;;;2.80;99.90;;;;;;5077858;28;20044;-84
2022/12/02 00:48:58;;;;;;;29.98;12.55;;;2.80;99.90;;;;;;5061904;28;20119;-84
2022/12/02 00:51:24;;;;;;;25.35;11.23;;;3.30;99.90;;;;;;5079659;28;20036;-81
2022/12/02 00:53:50;;;;;;;30.75;12.63;;;2.80;99.90;;;;;;5078385;28;20047;-81
2022/12/02 00:56:15;;;;;;;30.42;10.57;;;3.20;99.90;;;;;;5078388;28;20040;-81
2022/12/02 00:58:41;;;;;;;25.98;9.95;;;2.70;99.90;;;;;;5078860;28;20520;-81
2022/12/02 01:01:07;;;;;;;30.10;10.07;;;2.70;99.90;;;;;;5074526;28;20032;-81
2022/12/02 01:03:33;;;;;;;28.42;10.07;;;2.80;99.90;;;;;;5077977;28;20048;-81
2022/12/02 01:05:59;;;;;;;29.85;10.77;;;2.60;99.90;;;;;;5076059;28;20113;-81
2022/12/02 01:08:26;;;;;;;29.83;11.00;;;2.80;99.90;;;;;;5061448;28;20373;-81
2022/12/02 01:10:56;;;;;;;28.60;10.02;;;3.30;99.90;;;;;;5078183;28;20040;-81
2022/12/02 01:13:24;;;;;;;27.38;10.85;;;3.70;99.90;;;;;;5078566;28;20032;-81
2022/12/02 01:15:50;;;;;;;23.75;10.32;;;2.70;99.90;;;;;;5077780;28;20047;-81
2022/12/02 01:18:16;;;;;;;26.55;9.70;;;2.70;99.90;;;;;;5077899;28;20074;-81
2022/12/02 01:20:42;;;;;;;22.77;8.50;;;2.70;99.90;;;;;;5077771;28;20047;-81
2022/12/02 01:23:08;;;;;;;22.23;9.27;;;3.60;99.90;;;;;;5077944;28;20090;-79
2022/12/02 01:25:34;;;;;;;26.25;9.40;;;3.80;99.90;;;;;;5076937;28;20047;-79
2022/12/02 01:28:00;;;;;;;29.05;11.73;;;2.70;99.90;;;;;;5077287;28;20515;-79
2022/12/02 01:30:26;;;;;;;28.73;10.98;;;2.70;99.90;;;;;;5077099;28;20040;-79
2022/12/02 01:32:51;;;;;;;24.95;10.18;;;4.30;99.90;;;;;;5077151;28;20055;-79
2022/12/02 01:35:17;;;;;;;32.50;10.90;;;2.50;99.90;;;;;;5076914;28;20455;-79
2022/12/02 01:37:43;;;;;;;27.90;8.93;;;2.70;99.90;;;;;;5075319;28;20036;-79
2022/12/02 01:40:10;;;;;;;26.65;10.02;;;2.70;99.90;;;;;;5076465;28;20048;-79
2022/12/02 01:42:37;;;;;;;27.92;11.25;;;2.70;99.90;;;;;;5076631;28;20063;-79
2022/12/02 01:45:03;;;;;;;29.60;10.45;;;2.70;99.90;;;;;;5076888;28;20055;-79
2022/12/02 01:47:30;;;;;;;24.52;10.48;;;2.70;99.90;;;;;;5076147;28;20493;-81
2022/12/02 01:49:56;;;;;;;30.23;11.32;;;4.20;99.90;;;;;;5077017;28;20047;-81
2022/12/02 01:52:22;;;;;;;22.90;8.82;;;2.70;99.90;;;;;;5077617;28;20044;-81
2022/12/02 01:54:50;;;;;;;26.30;10.18;;;2.70;99.90;;;;;;5060738;28;20047;-81
2022/12/02 01:57:17;;;;;;;25.15;9.82;;;3.10;99.90;;;;;;5077252;28;20074;-84
2022/12/02 01:59:43;;;;;;;27.25;9.27;;;2.70;99.90;;;;;;5077289;28;20047;-81
2022/12/02 02:02:30;;;;;;;27.77;9.80;;;3.50;99.90;;;;;;5076880;28;20047;-81
2022/12/02 02:05:13;;;;;;;28.70;10.27;;;2.70;99.90;;;;;;5080298;23;20063;-80
2022/12/02 02:07:41;;;;;;;26.60;9.73;;;2.50;99.90;;;;;;5077568;28;20036;-80
2022/12/02 02:10:08;;;;;;;23.77;9.18;;;2.70;99.90;;;;;;5074634;28;20044;-80
2022/12/02 02:12:34;;;;;;;26.10;9.02;;;2.70;99.90;;;;;;5078879;28;20112;-80
2022/12/02 02:15:02;;;;;;;24.40;9.85;;;2.70;99.90;;;;;;5086919;28;20477;-84
2022/12/02 02:17:28;;;;;;;25.70;10.23;;;3.10;99.90;;;;;;5083893;28;20043;-84
2022/12/02 02:19:54;;;;;;;25.55;9.57;;;3.20;99.90;;;;;;5088356;28;20093;-84
2022/12/02 02:22:26;;;;;;;28.58;10.55;;;2.60;99.90;;;;;;5076584;28;20040;-85
2022/12/02 02:24:52;;;;;;;22.38;9.60;;;2.70;99.90;;;;;;5081544;28;20223;-84
2022/12/02 02:27:18;;;;;;;27.95;10.23;;;2.70;99.90;;;;;;5048713;28;20032;-85
2022/12/02 02:29:44;;;;;;;25.75;8.85;;;2.60;99.90;;;;;;5087005;28;20044;-82
2022/12/02 02:32:10;;;;;;;23.38;10.70;;;3.40;99.90;;;;;;5086854;28;20051;-81
2022/12/02 02:34:36;;;;;;;25.90;11.25;;;2.60;99.90;;;;;;5081464;28;20044;-81
2022/12/02 02:37:01;;;;;;;24.30;9.27;;;3.80;99.90;;;;;;5083100;28;20035;-81
2022/12/02 02:39:27;;;;;;;26.25;10.38;;;4.10;99.90;;;;;;5077050;28;20040;-81
2022/12/02 02:41:55;;;;;;;25.00;10.57;;;2.70;99.90;;;;;;5077060;28;20048;-81
2022/12/02 02:44:21;;;;;;;28.38;9.98;;;2.70;99.90;;;;;;5062529;28;20052;-81
2022/12/02 02:46:46;;;;;;;28.67;9.70;;;3.00;99.90;;;;;;5079070;28;20048;-81
2022/12/02 02:49:13;;;;;;;28.85;10.57;;;2.60;99.90;;;;;;5048914;28;20104;-81
2022/12/02 02:51:38;;;;;;;26.20;9.88;;;3.80;99.90;;;;;;5067060;28;20036;-82
2022/12/02 02:54:04;;;;;;;23.42;8.95;;;2.70;99.90;;;;;;5089794;28;20040;-81
2022/12/02 02:56:30;;;;;;;26.40;9.75;;;0.90;99.90;;;;;;5069156;28;20041;-81
2022/12/02 02:58:55;;;;;;;29.40;10.68;;;2.60;99.90;;;;;;5077807;28;20036;-81
2022/12/02 03:01:41;;;;;;;26.70;10.27;;;3.10;99.90;;;;;;5082190;28;20514;-81
2022/12/02 03:04:11;;;;;;;27.52;9.20;;;2.60;99.90;;;;;;5073173;28;20048;-81
2022/12/02 03:06:38;;;;;;;23.40;9.13;;;2.60;99.90;;;;;;5065041;28;20043;-81
2022/12/02 03:09:05;;;;;;;30.13;9.80;;;2.40;99.90;;;;;;5079011;28;20072;-82
2022/12/02 03:11:32;;;;;;;26.05;9.27;;;2.60;99.90;;;;;;5062782;28;20124;-81
2022/12/02 03:14:00;;;;;;;30.70;9.32;;;2.60;99.90;;;;;;5082057;28;20037;-81
2022/12/02 03:16:26;;;;;;;25.42;10.35;;;2.80;99.90;;;;;;5083559;28;20112;-81
2022/12/02 03:18:53;;;;;;;23.73;7.65;;;2.60;99.90;;;;;;5066562;28;20036;-81
2022/12/02 03:21:20;;;;;;;25.90;9.70;;;2.60;99.90;;;;;;5063272;28;20036;-80
2022/12/02 03:23:48;;;;;;;25.08;9.20;;;2.10;99.90;;;;;;5079123;28;20036;-80
2022/12/02 03:26:14;;;;;;;25.63;8.18;;;2.60;99.90;;;;;;5085805;28;20395;-80
2022/12/02 03:28:41;;;;;;;23.95;9.10;;;2.60;99.90;;;;;;5060495;28;20462;-80
2022/12/02 03:31:08;;;;;;;26.05;8.82;;;3.10;99.90;;;;;;5085446;28;20036;-80
2022/12/02 03:33:34;;;;;;;23.33;9.45;;;2.60;99.90;;;;;;5080689;28;20118;-80
2022/12/02 03:36:00;;;;;;;25.63;8.93;;;3.80;99.90;;;;;;5065082;28;20051;-80
2022/12/02 03:38:27;;;;;;;28.92;9.60;;;3.00;99.90;;;;;;5078523;28;20079;-80
2022/12/02 03:40:53;;;;;;;23.15;7.88;;;2.70;99.90;;;;;;5076346;28;20033;-80
2022/12/02 03:43:19;;;;;;;21.65;8.82;;;2.70;99.90;;;;;;5057407;28;20036;-84
2022/12/02 03:45:45;;;;;;;25.38;9.20;;;3.80;99.90;;;;;;5071739;28;20051;-84
2022/12/02 03:48:12;;;;;;;26.42;9.45;;;2.60;99.90;;;;;;5081824;28;20044;-85
2022/12/02 03:50:39;;;;;;;29.38;9.63;;;2.60;99.90;;;;;;5087908;28;20040;-85
2022/12/02 03:53:05;;;;;;;27.33;9.05;;;2.60;99.90;;;;;;5044939;28;20036;-81
2022/12/02 03:55:31;;;;;;;23.35;8.80;;;2.60;99.90;;;;;;5080957;28;20044;-81
2022/12/02 03:58:07;;;;;;;26.95;9.32;;;1.90;99.90;;;;;;5083820;28;20130;-80
2022/12/02 04:00:35;;;;;;;24.55;9.65;;;2.60;99.90;;;;;;5073200;28;20051;-80
2022/12/02 04:03:00;;;;;;;27.67;9.23;;;2.60;99.90;;;;;;5075693;28;20133;-80
2022/12/02 04:05:26;;;;;;;27.35;9.60;;;2.60;99.90;;;;;;5080593;28;20083;-80
2022/12/02 04:07:52;;;;;;;28.80;8.70;;;2.60;99.90;;;;;;5065822;28;20070;-80
2022/12/02 04:10:18;;;;;;;24.42;9.30;;;1.20;99.90;;;;;;5079415;28;20041;-80
2022/12/02 04:12:43;;;;;;;34.17;11.15;;;2.60;99.90;;;;;;5062866;28;20058;-80
2022/12/02 04:15:10;;;;;;;22.30;9.13;;;2.60;99.90;;;;;;5030763;28;20785;-80
2022/12/02 04:17:36;;;;;;;28.20;9.40;;;2.50;99.90;;;;;;5080952;28;20063;-80
2022/12/02 04:20:04;;;;;;;28.67;10.60;;;1.50;99.90;;;;;;5069137;28;20036;-80
2022/12/02 04:22:30;;;;;;;30.42;10.13;;;2.50;99.90;;;;;;5077834;28;20039;-80
2022/12/02 04:24:57;;;;;;;25.52;9.32;;;2.50;99.90;;;;;;5081689;28;20115;-80
2022/12/02 04:27:23;;;;;;;24.98;8.25;;;2.50;99.90;;;;;;5064665;28;20438;-85
2022/12/02 04:29:49;;;;;;;22.90;8.10;;;2.50;99.90;;;;;;5081504;28;20045;-85
2022/12/02 04:32:15;;;;;;;35.33;10.95;;;2.40;99.90;;;;;;5084446;28;20040;-85
2022/12/02 04:34:40;;;;;;;25.60;10.00;;;2.80;99.90;;;;;;5064217;28;20036;-80
2022/12/02 04:37:06;;;;;;;22.92;8.05;;;2.40;99.90;;;;;;5076976;28;20123;-80
2022/12/02 04:39:32;;;;;;;26.52;9.10;;;2.40;99.90;;;;;;5065747;28;20052;-80
2022/12/02 04:41:59;;;;;;;29.00;9.82;;;2.40;99.90;;;;;;5079527;28;20041;-80
2022/12/02 04:44:25;;;;;;;29.35;9.93;;;2.40;99.90;;;;;;5040183;28;20123;-84
2022/12/02 04:46:51;;;;;;;26.38;9.60;;;3.10;99.90;;;;;;5045159;28;20083;-84
2022/12/02 04:49:16;;;;;;;26.90;7.93;;;2.40;99.90;;;;;;5084638;28;20044;-84
2022/12/02 04:51:42;;;;;;;26.25;9.98;;;2.40;99.90;;;;;;5065190;28;20037;-84
2022/12/02 04:54:08;;;;;;;25.40;9.13;;;2.40;99.90;;;;;;5081697;28;20041;-84
2022/12/02 04:56:33;;;;;;;26.70;9.77;;;2.80;99.90;;;;;;5068755;28;20500;-85
2022/12/02 04:58:59;;;;;;;27.70;9.27;;;2.40;99.90;;;;;;5081959;28;20047;-85
2022/12/02 05:01:25;;;;;;;23.30;8.30;;;3.70;99.90;;;;;;5082935;28;20056;-85
2022/12/02 05:03:51;;;;;;;26.98;9.30;;;0.80;99.90;;;;;;5085362;28;20124;-84
2022/12/02 05:06:17;;;;;;;29.25;9.45;;;1.00;99.90;;;;;;5066449;28;20050;-85
2022/12/02 05:08:42;;;;;;;26.50;9.05;;;3.90;99.90;;;;;;5064779;28;20051;-84
2022/12/02 05:11:08;;;;;;;23.80;9.07;;;2.60;99.90;;;;;;5063392;28;20450;-85
2022/12/02 05:13:34;;;;;;;28.90;10.50;;;2.40;99.90;;;;;;5079632;28;20544;-85
2022/12/02 05:16:00;;;;;;;25.95;9.02;;;2.40;99.90;;;;;;5066995;28;20048;-84
2022/12/02 05:18:25;;;;;;;29.02;9.93;;;2.40;99.90;;;;;;5089070;28;20063;-81
2022/12/02 05:20:51;;;;;;;29.73;9.23;;;2.40;99.90;;;;;;5086185;28;20035;-81
2022/12/02 05:23:17;;;;;;;27.97;9.30;;;4.00;99.90;;;;;;5091579;28;20130;-81
2022/12/02 05:25:42;;;;;;;26.60;9.32;;;2.40;99.90;;;;;;5086564;28;20566;-81
2022/12/02 05:28:08;;;;;;;26.83;9.07;;;2.40;99.90;;;;;;5070532;28;20092;-81
2022/12/02 05:30:34;;;;;;;24.57;9.13;;;2.40;99.90;;;;;;5088485;28;20050;-81
2022/12/02 05:32:59;;;;;;;24.17;10.15;;;3.70;99.90;;;;;;5061942;28;20039;-80
2022/12/02 05:35:25;;;;;;;25.52;8.77;;;2.40;99.90;;;;;;5066512;28;20493;-80
2022/12/02 05:37:51;;;;;;;26.92;9.07;;;2.00;99.90;;;;;;5068460;28;20089;-80
2022/12/02 05:40:16;;;;;;;32.05;9.23;;;2.40;99.90;;;;;;5068859;28;20472;-80
2022/12/02 05:42:42;;;;;;;30.88;9.65;;;2.30;99.90;;;;;;5089038;28;20055;-80
2022/12/02 05:45:21;;;;;;;28.10;9.10;;;2.80;99.90;;;;;;5089589;28;20125;-80
2022/12/02 05:47:57;;;;;;;26.13;8.77;;;2.30;99.90;;;;;;5082483;28;20497;-80
2022/12/02 05:50:23;;;;;;;26.77;8.73;;;2.20;99.90;;;;;;5081218;28;20043;-80
2022/12/02 05:52:49;;;;;;;23.58;8.43;;;2.20;99.90;;;;;;5091292;28;20040;-80
2022/12/02 05:55:19;;;;;;;25.75;8.80;;;2.20;99.90;;;;;;5088146;28;20044;-80
2022/12/02 05:57:46;;;;;;;27.15;8.02;;;2.10;99.90;;;;;;5063478;28;20052;-80
2022/12/02 06:00:16;;;;;;;25.42;8.73;;;2.10;99.90;;;;;;5086413;28;20100;-80
2022/12/02 06:02:55;;;;;;;26.48;8.50;;;2.10;99.90;;;;;;5084902;28;20506;-80
2022/12/02 06:05:39;;;;;;;21.67;8.88;;;2.10;99.90;;;;;;5082078;28;20052;-80
2022/12/02 06:08:15;;;;;;;19.37;8.33;;;3.30;99.90;;;;;;5062457;28;20032;-80
2022/12/02 06:10:42;;;;;;;;;;;2.00;99.90;;;;;;5082838;28;20438;-80
2022/12/02 06:13:23;;;;;;;20.65;7.68;;;2.90;99.90;;;;;;5091216;28;19922;-80
2022/12/02 06:15:50;;;;;;;22.83;7.55;;;1.90;99.90;;;;;;5069020;28;20126;-79
2022/12/02 06:18:18;;;;;;;24.15;8.38;;;1.90;99.90;;;;;;5081356;28;20068;-80
2022/12/02 06:20:46;;;;;;;21.70;7.45;;;1.90;99.90;;;;;;5085258;28;20040;-80
2022/12/02 06:23:19;;;;;;;22.52;8.85;;;1.90;99.90;;;;;;5068989;28;20097;-79
2022/12/02 06:25:46;;;;;;;26.05;8.95;;;1.80;99.90;;;;;;5081494;28;20047;-79
2022/12/02 06:28:25;;;;;;;25.33;8.20;;;1.90;99.90;;;;;;5078510;28;20112;-79
2022/12/02 06:30:55;;;;;;;27.87;9.67;;;3.10;99.90;;;;;;5071303;28;20063;-79
2022/12/02 06:33:29;;;;;;;27.10;9.17;;;1.80;99.90;;;;;;5087330;28;20059;-79
2022/12/02 06:35:58;;;;;;;30.65;10.30;;;2.60;99.90;;;;;;5085853;28;20122;-79
2022/12/02 06:38:36;;;;;;;25.70;9.40;;;1.80;99.90;;;;;;5062041;28;20043;-79
2022/12/02 06:41:14;;;;;;;26.92;8.65;;;1.80;99.90;;;;;;5083892;28;20083;-81
2022/12/02 06:43:40;;;;;;;25.20;7.85;;;1.80;99.90;;;;;;5087282;28;20051;-81
2022/12/02 06:46:19;;;;;;;20.23;7.23;;;1.80;99.90;;;;;;5086481;28;20040;-81
2022/12/02 06:48:45;;;;;;;30.38;9.68;;;2.30;99.90;;;;;;5080596;28;20036;-81
2022/12/02 06:51:21;;;;;;;27.63;9.77;;;2.80;99.90;;;;;;5082955;28;20040;-81
2022/12/02 06:53:47;;;;;;;26.60;8.23;;;1.80;99.90;;;;;;5064533;28;20047;-81
2022/12/02 06:56:16;;;;;;;26.85;8.70;;;1.80;99.90;;;;;;5098118;28;20043;-84
2022/12/02 06:58:44;;;;;;;24.17;7.90;;;1.80;99.90;;;;;;5071415;28;20054;-85
2022/12/02 07:01:30;;;;;;;24.38;9.25;;;3.20;99.90;;;;;;5085790;28;20050;-84
2022/12/02 07:04:00;;;;;;;26.60;8.95;;;3.10;99.90;;;;;;5083401;28;20040;-84
2022/12/02 07:06:28;;;;;;;21.33;7.73;;;1.80;99.90;;;;;;5091922;28;20044;-85
2022/12/02 07:09:11;;;;;;;24.40;8.02;;;1.80;99.90;;;;;;5079275;28;20043;-84
2022/12/02 07:11:49;;;;;;;29.67;8.77;;;1.80;99.90;;;;;;5083913;28;20031;-84
2022/12/02 07:14:31;;;;;;;25.10;8.13;;;2.10;99.90;;;;;;5082058;28;20475;-79
2022/12/02 07:17:44;;;;;;;26.90;8.70;;;1.80;99.90;;;;;;5083168;28;20040;-79
2022/12/02 07:20:33;;;;;;;25.15;7.93;;;1.80;99.90;;;;;;5081501;28;20108;-79
2022/12/02 07:23:04;;;;;;;18.63;7.05;;;1.80;99.90;;;;;;5088783;28;20395;-79
2022/12/02 07:25:37;;;;;;;23.52;7.28;;;1.70;99.90;;;;;;5066407;28;20130;-79
2022/12/02 07:28:23;;;;;;;18.83;6.95;;;1.80;99.90;;;;;;5064457;28;20055;-79
2022/12/02 07:31:13;;;;;;;23.60;7.95;;;3.10;99.90;;;;;;5072651;28;20047;-79
2022/12/02 07:33:39;;;;;;;28.63;9.70;;;1.80;99.90;;;;;;5076206;28;20063;-79
2022/12/02 07:36:05;;;;;;;25.70;7.90;;;0.70;99.90;;;;;;5067703;28;20851;-79
2022/12/02 07:38:30;;;;;;;20.03;7.63;;;1.70;99.90;;;;;;5078184;28;20050;-79
2022/12/02 07:40:56;;;;;;;29.80;9.20;;;1.90;99.90;;;;;;5067115;28;20399;-79
2022/12/02 07:43:22;;;;;;;25.85;8.25;;;1.70;99.90;;;;;;5081458;28;20499;-79
2022/12/02 07:45:47;;;;;;;25.03;9.10;;;1.70;99.90;;;;;;5082308;28;20043;-79
2022/12/02 07:48:13;;;;;;;28.13;9.03;;;3.30;99.90;;;;;;5061130;28;20044;-80
2022/12/02 07:50:39;;;;;;;25.67;8.93;;;1.70;99.90;;;;;;5075831;28;20070;-80
2022/12/02 07:53:04;;;;;;;29.02;9.27;;;3.00;99.90;;;;;;5077290;28;20035;-80
2022/12/02 07:55:30;;;;;;;30.08;8.48;;;1.70;99.90;;;;;;5073161;28;20097;-80
2022/12/02 07:57:56;;;;;;;26.67;8.37;;;1.80;99.90;;;;;;5049370;28;20062;-83
2022/12/02 08:00:23;;;;;;;31.17;9.00;;;2.20;99.90;;;;;;5063244;28;20040;-83
2022/12/02 08:02:48;;;;;;;28.02;9.68;;;1.80;99.90;;;;;;5079016;28;20051;-81
2022/12/02 08:05:14;;;;;;;25.70;8.77;;;1.80;99.90;;;;;;5125212;23;20059;-82
2022/12/02 08:07:41;;;;;;;24.77;9.15;;;1.80;99.90;;;;;;5078294;28;20049;-84
2022/12/02 08:10:08;;;;;;;28.25;8.40;;;1.80;99.90;;;;;;5078330;28;20040;-84
2022/12/02 08:12:33;;;;;;;32.45;10.15;;;1.90;99.90;;;;;;5074680;28;20036;-84
2022/12/02 08:14:59;;;;;;;35.33;11.40;;;1.90;99.90;;;;;;5078544;28;20054;-84
2022/12/02 08:17:25;;;;;;;32.08;10.02;;;2.30;99.90;;;;;;5091789;28;20407;-84
2022/12/02 08:19:50;;;;;;;35.60;10.30;;;2.00;99.90;;;;;;5078453;28;20402;-82
2022/12/02 08:22:16;;;;;;;29.45;10.48;;;2.10;99.90;;;;;;5078250;28;20040;-81
2022/12/02 08:24:42;;;;;;;32.95;10.02;;;2.30;99.90;;;;;;5078422;28;20043;-81
2022/12/02 08:27:08;;;;;;;33.77;11.00;;;2.20;99.90;;;;;;5073197;28;20040;-81
2022/12/02 08:29:36;;;;;;;31.48;9.88;;;2.30;99.90;;;;;;5095225;28;20538;-81
2022/12/02 08:32:02;;;;;;;36.03;11.25;;;2.30;99.90;;;;;;5078013;28;20114;-81
2022/12/02 08:34:27;;;;;;;30.97;10.70;;;2.70;99.90;;;;;;5062221;28;20042;-81
2022/12/02 08:36:53;;;;;;;30.43;10.57;;;2.50;99.90;;;;;;5077696;28;20470;-81
2022/12/02 08:39:19;;;;;;;26.15;10.32;;;2.50;99.90;;;;;;5074548;28;20046;-81
2022/12/02 08:41:45;;;;;;;33.83;11.65;;;2.70;99.90;;;;;;5092737;28;20075;-81
2022/12/02 08:44:10;;;;;;;39.33;12.50;;;3.80;99.90;;;;;;5077641;28;20054;-81
2022/12/02 08:46:36;;;;;;;32.70;11.43;;;3.70;99.90;;;;;;5090979;28;20102;-81
2022/12/02 08:49:05;;;;;;;29.57;10.30;;;2.80;99.90;;;;;;5098073;28;20040;-81
2022/12/02 08:51:31;;;;;;;26.60;10.33;;;3.10;99.90;;;;;;5082234;28;20044;-81
2022/12/02 08:53:56;;;;;;;31.40;10.70;;;4.10;99.90;;;;;;5098839;28;20040;-81
2022/12/02 08:56:22;;;;;;;37.60;12.35;;;2.80;99.90;;;;;;5099687;28;20078;-81
2022/12/02 08:58:48;;;;;;;34.03;11.30;;;2.80;99.90;;;;;;5099335;28;20110;-81
2022/12/02 09:01:13;;;;;;;35.13;10.83;;;2.80;99.90;;;;;;5065984;28;20039;-81
2022/12/02 09:03:39;;;;;;;37.30;11.15;;;2.80;99.90;;;;;;5099225;28;20043;-81
2022/12/02 09:06:05;;;;;;;37.88;11.07;;;2.80;99.90;;;;;;5082158;28;20119;-81
2022/12/02 09:08:30;;;;;;;34.05;10.63;;;2.80;99.90;;;;;;5065916;28;20044;-81
2022/12/02 09:10:56;;;;;;;30.40;11.85;;;2.80;99.90;;;;;;5082089;28;20173;-81
2022/12/02 09:13:22;;;;;;;26.90;10.77;;;3.20;99.90;;;;;;5098846;28;20035;-80
2022/12/02 09:15:47;;;;;;;25.38;10.80;;;2.80;99.90;;;;;;5099030;28;20042;-81
2022/12/02 09:18:13;;;;;;;28.45;10.27;;;4.10;99.90;;;;;;5078288;27;20115;-81
2022/12/02 09:20:39;;;;;;;26.27;9.93;;;3.10;99.90;;;;;;5094602;28;20050;-82
2022/12/02 09:23:05;;;;;;;29.03;10.50;;;2.70;99.90;;;;;;5092345;28;20462;-81
2022/12/02 09:25:30;;;;;;;28.90;9.93;;;2.60;99.90;;;;;;5081799;28;20097;-82
2022/12/02 09:27:56;;;;;;;28.07;8.97;;;2.60;99.90;;;;;;5098618;28;20039;-83
2022/12/02 09:30:22;;;;;;;24.73;8.50;;;3.80;99.90;;;;;;5087062;28;20036;-83
2022/12/02 09:32:47;;;;;;;26.33;9.80;;;2.60;99.90;;;;;;5081549;28;20058;-83
2022/12/02 09:35:13;;;;;;;30.60;10.77;;;2.60;99.90;;;;;;5098221;28;20042;-83
2022/12/02 09:37:39;;;;;;;31.70;10.40;;;2.60;99.90;;;;;;5081479;28;20126;-83
2022/12/02 09:40:05;;;;;;;29.63;9.02;;;2.60;99.90;;;;;;5098319;28;20131;-83
2022/12/02 09:42:32;;;;;;;31.05;10.02;;;3.10;99.90;;;;;;5097524;28;20052;-83
2022/12/02 09:44:58;;;;;;;31.33;9.40;;;4.20;99.90;;;;;;5079999;28;20036;-81
2022/12/02 09:47:25;;;;;;;27.08;9.50;;;2.80;99.90;;;;;;5097792;28;20045;-81
2022/12/02 09:49:51;;;;;;;23.00;9.00;;;2.80;99.90;;;;;;5083256;27;20110;-81
2022/12/02 09:52:20;;;;;;;24.00;9.20;;;2.90;99.90;;;;;;5080370;28;20106;-80
2022/12/02 09:54:47;;;;;;;29.77;9.80;;;2.90;99.90;;;;;;5097941;28;20039;-80
2022/12/02 09:57:15;;;;;;;24.95;10.07;;;2.70;99.90;;;;;;5098148;28;20043;-81
2022/12/02 09:59:42;;;;;;;29.30;11.43;;;2.80;99.90;;;;;;5080102;28;20550;-82
2022/12/02 10:02:29;;;;;;;30.10;9.45;;;2.70;99.90;;;;;;5080942;28;20490;-82
2022/12/02 10:04:59;;;;;;;27.52;9.18;;;2.60;99.90;;;;;;5097260;28;20052;-82
2022/12/02 10:07:25;;;;;;;23.75;9.48;;;2.50;99.90;;;;;;5094243;28;20044;-83
2022/12/02 10:09:51;;;;;;;20.00;8.57;;;2.50;99.90;;;;;;5061064;28;20043;-83
2022/12/02 10:12:17;;;;;;;25.42;8.77;;;2.50;99.90;;;;;;5094048;28;20054;-82
2022/12/02 10:14:48;;;;;;;19.55;8.98;;;2.40;99.90;;;;;;5101028;27;20035;-83
2022/12/02 10:17:20;;;;;;;28.30;9.95;;;2.40;99.90;;;;;;5118364;27;20047;-83
2022/12/02 10:19:47;;;;;;;24.58;8.35;;;2.40;99.90;;;;;;5106190;28;20439;-82
2022/12/02 10:22:19;;;;;;;24.85;9.55;;;2.40;99.90;;;;;;5097643;28;20032;-82
2022/12/02 10:24:47;;;;;;;25.13;7.97;;;2.90;99.90;;;;;;5080797;28;20127;-83
2022/12/02 10:27:42;;;;;;;24.30;9.17;;;2.30;99.90;;;;;;5081255;28;20391;-82
2022/12/02 10:30:22;;;;;;;25.48;9.20;;;3.50;99.90;;;;;;5076127;28;20111;-82
2022/12/02 10:33:02;;;;;;;25.63;8.60;;;2.10;99.90;;;;;;5098061;28;20058;-82
2022/12/02 10:35:45;;;;;;;26.23;8.85;;;2.10;99.90;;;;;;5097461;28;20039;-81
2022/12/02 10:38:38;;;;;;;23.90;8.13;;;2.20;99.90;;;;;;5080417;28;20176;-81
2022/12/02 10:41:15;;;;;;;25.45;8.75;;;2.60;99.90;;;;;;5099035;27;20063;-81
2022/12/02 10:43:51;;;;;;;28.25;8.93;;;3.20;99.90;;;;;;5080423;28;20051;-81
2022/12/02 10:46:21;;;;;;;25.90;8.65;;;3.50;99.90;;;;;;5070871;28;20074;-80
2022/12/02 10:48:47;;;;;;;25.90;8.80;;;3.70;99.90;;;;;;5094546;27;20093;-80
2022/12/02 10:51:15;;;;;;;26.52;9.02;;;3.50;99.90;;;;;;5060612;28;20119;-80
2022/12/02 10:53:41;;;;;;;23.48;8.75;;;3.30;99.90;;;;;;5085564;28;20114;-82
2022/12/02 10:56:17;;;;;;;27.17;9.60;;;3.20;99.90;;;;;;5066623;27;20039;-81
2022/12/02 10:58:43;;;;;;;22.75;8.38;;;2.40;99.90;;;;;;5101059;27;20078;-81
2022/12/02 11:01:11;;;;;;;19.10;7.63;;;4.20;99.90;;;;;;5083531;27;20513;-81
2022/12/02 11:03:37;;;;;;;23.50;8.18;;;;;;;;;;5097173;27;20491;-81
2022/12/02 11:06:13;;;;;;;25.98;8.82;;;3.20;99.90;;;;;;5062537;28;20051;-81
2022/12/02 11:08:41;;;;;;;21.40;8.25;;;3.20;99.90;;;;;;5076357;28;20467;-81
2022/12/02 11:11:33;;;;;;;26.48;8.85;;;3.10;99.90;;;;;;5079181;28;20061;-81
2022/12/02 11:14:01;;;;;;;24.95;8.60;;;3.20;99.90;;;;;;5117006;27;20043;-81
2022/12/02 11:16:26;;;;;;;25.63;8.73;;;3.60;99.90;;;;;;5096554;28;20047;-81
2022/12/02 11:19:07;;;;;;;28.25;9.65;;;3.20;99.90;;;;;;5096550;28;20073;-81
2022/12/02 11:21:42;;;;;;;25.50;8.50;;;3.40;99.90;;;;;;5094672;28;20353;-81
2022/12/02 11:24:23;;;;;;;29.60;9.60;;;3.10;99.90;;;;;;5087388;28;20035;-83
2022/12/02 11:27:01;;;;;;;27.95;10.32;;;3.70;99.90;;;;;;5088151;28;20494;-83
2022/12/02 11:30:05;;;;;;;28.17;9.07;;;3.30;99.90;;;;;;5096017;28;20040;-82
2022/12/02 11:32:37;;;;;;;28.10;10.55;;;3.10;99.90;;;;;;5059368;28;20047;-82
2022/12/02 11:35:12;;;;;;;24.85;9.32;;;4.20;99.90;;;;;;5079582;28;20134;-82
2022/12/02 11:37:40;;;;;;;24.90;9.70;;;3.20;99.90;;;;;;5070249;28;20437;-82
2022/12/02 11:40:14;;;;;;;25.23;9.60;;;3.30;99.90;;;;;;5091499;28;20048;-82
2022/12/02 11:42:42;;;;;;;31.55;9.43;;;3.30;99.90;;;;;;5079306;28;20052;-80
2022/12/02 11:45:14;;;;;;;25.23;8.90;;;3.20;99.90;;;;;;5082490;28;20391;-80
2022/12/02 11:47:52;;;;;;;23.58;9.57;;;3.10;99.90;;;;;;5060661;28;20394;-80
2022/12/02 11:50:27;;;;;;;31.35;9.70;;;3.10;99.90;;;;;;5079391;28;20373;-80
2022/12/02 11:53:03;;;;;;;24.80;9.60;;;3.20;99.90;;;;;;5096177;28;20036;-80
2022/12/02 11:55:33;;;;;;;30.20;10.57;;;3.20;99.90;;;;;;5093700;28;20100;-80
2022/12/02 11:58:00;;;;;;;28.67;10.40;;;3.20;99.90;;;;;;5092992;28;20039;-82
2022/12/02 12:00:30;;;;;;;30.65;10.63;;;3.30;99.90;;;;;;5062395;28;20502;-83
2022/12/02 12:03:16;;;;;;;26.27;10.88;;;3.20;99.90;;;;;;5098909;27;20047;-82
2022/12/02 12:06:09;;;;;;;25.70;9.88;;;3.20;99.90;;;;;;5071957;28;20400;-83
2022/12/02 12:08:44;;;;;;;29.75;10.02;;;3.10;99.90;;;;;;5067899;28;20180;-83
2022/12/02 12:11:19;;;;;;;36.00;11.85;;;3.10;99.90;;;;;;5083728;28;20153;-83
2022/12/02 12:14:05;;;;;;;33.85;12.25;;;4.00;99.90;;;;;;5075376;28;20222;-80
2022/12/02 12:16:37;;;;;;;31.63;11.85;;;3.10;99.90;;;;;;5081592;28;20036;-80
2022/12/02 12:19:24;;;;;;;29.42;12.18;;;3.10;99.90;;;;;;5063770;28;20044;-80
2022/12/02 12:21:54;;;;;;;29.60;11.35;;;3.10;99.90;;;;;;5066945;28;20464;-80
2022/12/02 12:24:19;;;;;;;33.15;12.80;;;3.10;99.90;;;;;;5092288;28;20156;-80
2022/12/02 12:26:46;;;;;;;32.65;11.90;;;3.10;99.90;;;;;;5091965;28;20086;-80
2022/12/02 12:29:18;;;;;;;32.45;12.60;;;3.00;99.90;;;;;;5071674;28;20130;-80
2022/12/02 12:31:44;;;;;;;33.22;12.55;;;4.70;99.90;;;;;;5056414;28;20036;-80
2022/12/02 12:34:10;;;;;;;31.13;11.13;;;3.00;99.90;;;;;;5055309;28;20115;-80
2022/12/02 12:36:37;;;;;;;28.33;12.75;;;3.00;99.90;;;;;;5072451;28;20124;-80
2022/12/02 12:39:04;;;;;;;30.73;12.25;;;3.00;99.90;;;;;;5056049;28;20498;-80
2022/12/02 12:41:30;;;;;;;34.72;12.27;;;1.40;99.90;;;;;;5072020;28;20091;-80
2022/12/02 12:43:56;;;;;;;34.75;12.57;;;4.50;99.90;;;;;;5057046;28;20132;-81
2022/12/02 12:46:22;;;;;;;34.60;12.13;;;3.30;99.90;;;;;;5091660;28;20127;-81
2022/12/02 12:48:48;;;;;;;33.55;12.90;;;3.10;99.90;;;;;;5077502;28;20098;-80
2022/12/02 12:51:13;;;;;;;32.00;12.30;;;3.10;99.90;;;;;;5058302;28;20036;-80
2022/12/02 12:53:39;;;;;;;34.13;13.05;;;4.20;99.90;;;;;;5091742;28;20123;-80
2022/12/02 12:56:05;;;;;;;36.58;13.43;;;4.50;99.90;;;;;;5075181;28;20040;-80